aviador You're here:

KBHB Decoded Metar

BAR HARBOR in ME, USA
Report Time2017-05-26 10:56:00
UTC Time2017-05-26 11:17:16
Flight Rules ifr IFR
Wind070° at 12 Gusting to 18 kt
W.Decomp.*RWY 04: 7.9 kt HW 9.1 kt RCW
RWY 17: 1.9 kt HW 11.9 kt LCW
W.Rank070° ranks 34
Current wind is above 070° avg. (5.9)
Visibility8047 m
Phenomena:Rain
Mist
Clouds:Overcast 009 Hf
Ceiling900 ft
Temp08°C (ISA -7)
Dew Point08°C (100% RH)
AAT3.2°C
QNH1003 hPa
Density Alt-249 ft
Elevation85 ft
Report Wrong Elevation
Raw Report
KBHB 261056Z AUTO 07012G18KT 5SM RA BR OVC009 08/08 A2961 RMK AO2
CIG 006V012 SLP030 T00830078=

Extra information for KBHB:More info

Metar Taf Metar & Taf Last 4 Metars F.Rules Stats Wind Profile Meteogram Temp Stats Airport Information Weather charts Add Link Nearby VenuesMetar ALERT Operation Metar Decoded Social comments

AIRNAV info for KBHB